createdAt,value
2023-05-09T00:02:18.485Z,2.65
2023-05-09T00:05:24.307Z,2.80
2023-05-09T00:08:26.774Z,3.00
2023-05-09T00:11:29.591Z,3.00
2023-05-09T00:14:33.641Z,2.78
2023-05-09T00:17:38.593Z,3.00
2023-05-09T00:20:41.210Z,2.53
2023-05-09T00:23:43.847Z,2.90
2023-05-09T00:26:46.106Z,2.83
2023-05-09T00:29:48.685Z,2.70
2023-05-09T00:32:51.329Z,3.10
2023-05-09T00:35:54.562Z,3.00
2023-05-09T00:38:57.321Z,2.60
2023-05-09T00:42:00.010Z,2.80
2023-05-09T00:45:02.952Z,2.85
2023-05-09T00:48:06.214Z,3.17
2023-05-09T00:51:08.777Z,3.28
2023-05-09T00:54:12.144Z,2.67
2023-05-09T00:57:14.714Z,3.20
2023-05-09T01:00:17.823Z,3.03
2023-05-09T01:03:20.605Z,2.70
2023-05-09T01:06:33.012Z,2.83
2023-05-09T01:09:46.925Z,3.30
2023-05-09T01:16:15.428Z,3.00
2023-05-09T01:19:33.185Z,3.22
2023-05-09T01:22:37.938Z,3.47
2023-05-09T01:25:57.854Z,3.17
2023-05-09T01:29:18.843Z,3.08
2023-05-09T01:32:25.967Z,3.08
2023-05-09T01:35:31.564Z,2.97
2023-05-09T01:38:37.658Z,3.08
2023-05-09T01:41:40.238Z,3.10
2023-05-09T01:44:45.930Z,3.40
2023-05-09T01:47:50.097Z,3.17
2023-05-09T01:50:54.822Z,3.10
2023-05-09T01:53:58.580Z,3.20
2023-05-09T01:57:03.848Z,3.03
2023-05-09T02:00:09.164Z,3.00
2023-05-09T02:03:15.349Z,3.10
2023-05-09T02:06:21.377Z,2.97
2023-05-09T02:09:24.192Z,3.30
2023-05-09T02:12:26.875Z,3.17
2023-05-09T02:15:29.650Z,3.10
2023-05-09T02:18:32.786Z,3.33
2023-05-09T02:21:36.247Z,3.25
2023-05-09T02:24:40.066Z,3.83
2023-05-09T02:27:46.131Z,3.50
2023-05-09T02:30:49.945Z,3.47
2023-05-09T02:33:54.904Z,3.30
2023-05-09T02:36:57.693Z,3.60
2023-05-09T02:40:00.344Z,4.05
2023-05-09T02:43:04.089Z,3.40
2023-05-09T02:46:06.691Z,3.80
2023-05-09T02:49:10.205Z,3.47
2023-05-09T02:52:17.583Z,3.55
2023-05-09T02:55:20.390Z,3.60
2023-05-09T02:58:22.787Z,4.12
2023-05-09T03:01:25.561Z,3.58
2023-05-09T03:04:28.126Z,3.22
2023-05-09T03:07:31.216Z,3.55
2023-05-09T03:10:34.396Z,3.60
2023-05-09T03:13:37.809Z,3.60
2023-05-09T03:16:40.290Z,3.80
2023-05-09T03:19:43.369Z,3.72
2023-05-09T03:22:45.821Z,3.67
2023-05-09T03:25:48.513Z,3.60
2023-05-09T03:28:51.596Z,4.27
2023-05-09T03:31:55.157Z,3.75
2023-05-09T03:34:57.889Z,3.53
2023-05-09T03:38:01.512Z,3.87
2023-05-09T03:41:04.139Z,3.92
2023-05-09T03:47:10.223Z,3.62
2023-05-09T03:50:13.076Z,3.72
2023-05-09T03:53:16.312Z,3.53
2023-05-09T03:56:19.484Z,3.65
2023-05-09T03:59:22.277Z,3.50
2023-05-09T04:02:25.678Z,4.30
2023-05-09T04:05:28.937Z,4.00
2023-05-09T04:08:32.340Z,4.00
2023-05-09T04:11:36.080Z,3.58
2023-05-09T04:14:39.482Z,3.83
2023-05-09T04:17:42.379Z,3.57
2023-05-09T04:20:44.900Z,3.97
2023-05-09T04:23:48.288Z,7.07
2023-05-09T04:26:51.040Z,6.75
2023-05-09T04:29:54.163Z,3.95
2023-05-09T04:32:56.880Z,3.65
2023-05-09T04:39:04.021Z,3.45
2023-05-09T04:42:07.830Z,4.30
2023-05-09T04:45:11.816Z,3.55
2023-05-09T04:48:14.981Z,4.18
2023-05-09T04:51:17.536Z,3.75
2023-05-09T04:54:21.501Z,4.25
2023-05-09T04:57:26.573Z,3.85
2023-05-09T05:00:30.111Z,3.90
2023-05-09T05:03:33.038Z,3.80
2023-05-09T05:06:36.203Z,3.78
2023-05-09T05:09:38.972Z,3.75
2023-05-09T05:12:41.835Z,3.92
2023-05-09T05:15:44.574Z,4.22
2023-05-09T05:18:48.182Z,3.72
2023-05-09T05:21:50.929Z,3.67
2023-05-09T05:24:53.735Z,3.67
2023-05-09T05:27:56.052Z,3.50
2023-05-09T05:30:58.857Z,4.10
2023-05-09T05:34:01.932Z,3.70
2023-05-09T05:40:08.848Z,3.67
2023-05-09T05:43:11.925Z,3.90
2023-05-09T05:46:14.466Z,3.17
2023-05-09T05:49:17.957Z,3.55
2023-05-09T05:52:20.468Z,3.80
2023-05-09T05:55:23.510Z,3.43
2023-05-09T05:58:26.665Z,3.55
2023-05-09T06:01:29.469Z,3.40
2023-05-09T06:04:33.168Z,3.28
2023-05-09T06:07:35.706Z,3.50
2023-05-09T06:10:38.432Z,3.55
2023-05-09T06:13:41.102Z,3.08
2023-05-09T06:16:44.158Z,3.47
2023-05-09T06:19:46.605Z,3.97
2023-05-09T06:22:49.372Z,3.47
2023-05-09T06:25:51.778Z,3.60
2023-05-09T06:28:54.461Z,3.60
2023-05-09T06:31:57.009Z,3.40
2023-05-09T06:35:01.760Z,3.00
2023-05-09T06:38:04.147Z,2.78
2023-05-09T06:41:06.788Z,2.55
2023-05-09T06:44:09.230Z,2.28
2023-05-09T06:47:11.858Z,2.30
2023-05-09T06:50:14.271Z,1.55
2023-05-09T06:53:17.165Z,1.40
2023-05-09T06:56:23.111Z,1.80
2023-05-09T06:59:25.954Z,1.30
2023-05-09T07:02:28.330Z,1.48
2023-05-09T07:05:31.442Z,1.60
2023-05-09T07:08:36.496Z,1.80
2023-05-09T07:11:39.192Z,1.55
2023-05-09T07:14:41.968Z,1.80
2023-05-09T07:17:44.889Z,1.50
2023-05-09T07:20:47.279Z,1.48
2023-05-09T07:23:49.987Z,3.40
2023-05-09T07:26:58.828Z,1.83
2023-05-09T07:30:01.509Z,1.45
2023-05-09T07:33:04.098Z,1.52
2023-05-09T07:36:06.918Z,1.33
2023-05-09T07:39:09.368Z,1.50
2023-05-09T07:42:12.014Z,1.45
2023-05-09T07:45:14.563Z,1.50
2023-05-09T07:48:17.458Z,1.33
2023-05-09T07:51:19.879Z,1.10
2023-05-09T07:54:22.627Z,1.20
2023-05-09T07:57:25.061Z,1.42
2023-05-09T08:00:30.665Z,1.12
2023-05-09T08:03:33.582Z,1.47
2023-05-09T08:06:36.776Z,1.10
2023-05-09T08:09:39.445Z,1.00
2023-05-09T08:12:41.854Z,0.82
2023-05-09T08:15:44.782Z,1.20
2023-05-09T08:18:47.233Z,1.27
2023-05-09T08:21:49.906Z,1.05
2023-05-09T08:24:52.264Z,0.98
2023-05-09T08:27:55.020Z,1.00
2023-05-09T08:30:57.929Z,0.88
2023-05-09T08:34:01.162Z,1.60
2023-05-09T08:37:04.433Z,1.30
2023-05-09T08:40:07.895Z,1.20
2023-05-09T08:43:12.391Z,1.00
2023-05-09T08:46:53.970Z,1.10
2023-05-09T08:49:56.654Z,1.00
2023-05-09T08:53:02.687Z,0.90
2023-05-09T08:56:05.691Z,0.98
2023-05-09T08:59:09.068Z,0.90
2023-05-09T09:02:14.523Z,0.90
2023-05-09T09:05:39.636Z,0.88
2023-05-09T09:08:40.983Z,1.15
2023-05-09T09:11:44.644Z,2.08
2023-05-09T09:14:50.162Z,0.70
2023-05-09T09:17:56.779Z,0.90
2023-05-09T09:21:09.502Z,0.80
2023-05-09T09:24:18.150Z,0.90
2023-05-09T09:27:20.461Z,1.05
2023-05-09T09:30:26.685Z,1.00
2023-05-09T09:33:29.593Z,0.70
2023-05-09T09:36:33.080Z,0.80
2023-05-09T09:39:35.760Z,0.90
2023-05-09T09:42:48.861Z,1.30
2023-05-09T09:45:51.713Z,0.90
2023-05-09T09:48:57.680Z,1.23
2023-05-09T09:52:02.784Z,0.85
2023-05-09T09:55:05.879Z,0.90
2023-05-09T09:58:18.174Z,0.90
2023-05-09T10:01:27.611Z,1.10
2023-05-09T10:04:36.541Z,1.20
2023-05-09T10:07:39.001Z,2.00
2023-05-09T10:10:41.892Z,1.20
2023-05-09T10:13:45.741Z,1.58
2023-05-09T10:16:49.783Z,0.95
2023-05-09T10:19:53.053Z,1.20
2023-05-09T10:26:09.930Z,0.98
2023-05-09T10:29:14.811Z,0.90
2023-05-09T10:32:46.687Z,0.98
2023-05-09T10:35:52.063Z,0.93
2023-05-09T10:38:56.337Z,1.42
2023-05-09T10:42:00.729Z,1.10
2023-05-09T10:45:03.237Z,1.10
2023-05-09T10:48:09.009Z,1.05
2023-05-09T10:51:13.255Z,0.85
2023-05-09T10:54:30.092Z,0.90
2023-05-09T10:57:35.846Z,1.00
2023-05-09T11:00:42.592Z,1.40
2023-05-09T11:03:56.323Z,1.50
2023-05-09T11:07:00.592Z,1.60
2023-05-09T11:10:22.679Z,1.45
2023-05-09T11:13:30.456Z,1.05
2023-05-09T11:17:06.738Z,1.40
2023-05-09T11:20:10.172Z,1.40
2023-05-09T11:23:17.391Z,1.00
2023-05-09T11:26:23.710Z,0.90
2023-05-09T11:29:30.334Z,1.30
2023-05-09T11:32:45.588Z,1.30
2023-05-09T11:35:48.685Z,1.15
2023-05-09T11:39:09.007Z,1.10
2023-05-09T11:42:11.576Z,0.90
2023-05-09T11:45:15.672Z,1.20
2023-05-09T11:48:22.598Z,0.95
2023-05-09T11:51:25.238Z,0.90
2023-05-09T11:54:27.956Z,1.12
2023-05-09T11:57:30.864Z,1.25
2023-05-09T12:00:33.395Z,1.20
2023-05-09T12:03:36.461Z,1.17
2023-05-09T12:06:38.914Z,1.00
2023-05-09T12:09:43.600Z,1.03
2023-05-09T12:12:50.337Z,0.90
2023-05-09T12:16:00.798Z,1.10
2023-05-09T12:19:05.159Z,0.77
2023-05-09T12:22:08.285Z,1.00
2023-05-09T12:25:12.196Z,1.10
2023-05-09T12:28:16.196Z,1.10
2023-05-09T12:31:18.853Z,0.80
2023-05-09T12:34:21.871Z,1.10
2023-05-09T12:37:24.314Z,0.90
2023-05-09T12:40:27.906Z,1.23
2023-05-09T12:44:10.798Z,1.40
2023-05-09T12:47:13.650Z,0.95
2023-05-09T12:50:16.120Z,1.20
2023-05-09T12:53:30.829Z,1.10
2023-05-09T12:56:35.804Z,1.00
2023-05-09T12:59:46.710Z,1.20
2023-05-09T13:02:50.863Z,1.20
2023-05-09T13:05:58.190Z,1.30
2023-05-09T13:09:02.511Z,1.05
2023-05-09T13:12:10.014Z,1.30
2023-05-09T13:15:13.004Z,1.45
2023-05-09T13:18:16.104Z,1.20
2023-05-09T13:21:20.545Z,1.20
2023-05-09T13:24:23.995Z,1.52
2023-05-09T13:27:27.905Z,1.20
2023-05-09T13:30:31.454Z,1.05
2023-05-09T13:33:34.178Z,1.27
2023-05-09T13:36:37.431Z,1.00
2023-05-09T13:39:40.093Z,1.05
2023-05-09T13:42:42.835Z,1.00
2023-05-09T13:45:45.778Z,1.10
2023-05-09T13:48:48.529Z,1.30
2023-05-09T13:51:50.980Z,0.95
2023-05-09T13:54:54.830Z,1.37
2023-05-09T13:57:57.259Z,1.30
2023-05-09T14:00:59.904Z,1.08
2023-05-09T14:04:05.503Z,1.10
2023-05-09T14:07:09.627Z,1.10
2023-05-09T14:10:13.035Z,1.00
2023-05-09T14:13:15.799Z,1.85
2023-05-09T14:16:20.177Z,1.73
2023-05-09T14:19:25.680Z,1.00
2023-05-09T14:22:28.391Z,1.27
2023-05-09T14:25:30.800Z,1.02
2023-05-09T14:28:33.584Z,1.20
2023-05-09T14:31:36.303Z,1.05
2023-05-09T14:34:41.592Z,1.00
2023-05-09T14:37:44.091Z,1.00
2023-05-09T14:40:46.853Z,1.00
2023-05-09T14:43:49.240Z,0.90
2023-05-09T14:46:51.968Z,1.40
2023-05-09T14:49:54.538Z,0.82
2023-05-09T14:52:57.392Z,1.17
2023-05-09T14:55:59.780Z,0.95
2023-05-09T14:59:03.814Z,1.00
2023-05-09T15:05:11.925Z,1.00
2023-05-09T15:08:16.787Z,1.85
2023-05-09T15:11:19.605Z,1.10
2023-05-09T15:14:22.124Z,1.08
2023-05-09T15:17:24.775Z,0.90
2023-05-09T15:20:27.187Z,1.00
2023-05-09T15:23:29.837Z,1.00
2023-05-09T15:26:32.399Z,1.00
2023-05-09T15:29:35.207Z,0.70
2023-05-09T15:32:41.386Z,1.30
2023-05-09T15:35:45.162Z,1.40
2023-05-09T15:38:49.627Z,1.30
2023-05-09T15:41:52.665Z,1.10
2023-05-09T15:44:55.036Z,1.40
2023-05-09T15:47:57.709Z,2.00
2023-05-09T15:51:00.283Z,1.50
2023-05-09T15:54:02.993Z,1.27
2023-05-09T15:57:05.604Z,1.10
2023-05-09T16:00:10.053Z,1.20
2023-05-09T16:03:15.358Z,1.10
2023-05-09T16:06:18.369Z,1.27
2023-05-09T16:09:20.871Z,1.10
2023-05-09T16:12:25.207Z,1.27
2023-05-09T16:15:27.740Z,1.10
2023-05-09T16:18:31.216Z,0.97
2023-05-09T16:21:33.865Z,1.00
2023-05-09T16:24:37.586Z,1.10
2023-05-09T16:27:40.102Z,0.90
2023-05-09T16:30:42.873Z,0.90
2023-05-09T16:33:47.054Z,1.15
2023-05-09T16:36:50.112Z,1.00
2023-05-09T16:39:52.826Z,1.40
2023-05-09T16:42:55.474Z,1.40
2023-05-09T16:45:57.885Z,1.20
2023-05-09T16:49:00.555Z,2.55
2023-05-09T16:52:02.976Z,1.15
2023-05-09T16:55:06.244Z,1.30
2023-05-09T16:58:08.575Z,1.30
2023-05-09T17:01:11.567Z,1.48
2023-05-09T17:04:17.083Z,1.25
2023-05-09T17:07:22.007Z,1.25
2023-05-09T17:10:24.718Z,1.20
2023-05-09T17:13:28.358Z,1.40
2023-05-09T17:16:32.390Z,2.08
2023-05-09T17:19:37.522Z,2.70
2023-05-09T17:22:39.987Z,3.10
2023-05-09T17:25:43.597Z,3.45
2023-05-09T17:28:49.796Z,2.78
2023-05-09T17:31:52.720Z,2.35
2023-05-09T17:34:55.667Z,2.85
2023-05-09T17:37:58.628Z,4.30
2023-05-09T17:41:01.104Z,4.40
2023-05-09T17:44:04.119Z,4.75
2023-05-09T17:47:06.676Z,4.37
2023-05-09T17:50:10.637Z,4.00
2023-05-09T17:53:14.064Z,3.53
2023-05-09T17:59:19.583Z,2.50
2023-05-09T18:02:24.194Z,2.37
2023-05-09T18:05:27.508Z,2.08
2023-05-09T18:08:31.270Z,1.58
2023-05-09T18:11:35.293Z,1.62
2023-05-09T18:14:38.995Z,1.48
2023-05-09T18:17:44.498Z,1.90
2023-05-09T18:20:49.112Z,2.10
2023-05-09T18:23:59.295Z,1.50
2023-05-09T18:27:03.212Z,1.70
2023-05-09T18:30:08.122Z,1.95
2023-05-09T18:33:10.784Z,1.87
2023-05-09T18:36:15.177Z,1.57
2023-05-09T18:39:17.733Z,1.65
2023-05-09T18:42:20.678Z,1.80
2023-05-09T18:45:23.429Z,1.90
2023-05-09T18:48:26.239Z,1.75
2023-05-09T18:51:29.777Z,1.73
2023-05-09T18:57:35.078Z,1.62
2023-05-09T19:00:39.400Z,1.98
2023-05-09T19:03:45.793Z,2.40
2023-05-09T19:06:48.714Z,2.33
2023-05-09T19:09:51.515Z,2.50
2023-05-09T19:12:54.271Z,2.50
2023-05-09T19:15:56.699Z,2.20
2023-05-09T19:18:59.653Z,2.30
2023-05-09T19:22:02.133Z,2.70
2023-05-09T19:25:05.035Z,2.55
2023-05-09T19:28:07.326Z,2.53
2023-05-09T19:31:10.016Z,2.30
2023-05-09T19:34:12.713Z,1.83
2023-05-09T19:37:15.355Z,2.20
2023-05-09T19:40:18.090Z,2.35
2023-05-09T19:43:20.853Z,2.50
2023-05-09T19:46:23.305Z,2.80
2023-05-09T19:49:26.000Z,2.42
2023-05-09T19:52:29.624Z,2.70
2023-05-09T19:58:34.803Z,2.70
2023-05-09T20:01:38.599Z,4.17
2023-05-09T20:04:46.535Z,2.65
2023-05-09T20:07:49.548Z,2.12
2023-05-09T20:10:52.826Z,2.70
2023-05-09T20:13:55.362Z,2.20
2023-05-09T20:16:58.073Z,2.30
2023-05-09T20:20:00.838Z,2.30
2023-05-09T20:23:03.997Z,2.27
2023-05-09T20:26:06.562Z,2.10
2023-05-09T20:29:09.268Z,2.00
2023-05-09T20:32:11.552Z,2.12
2023-05-09T20:35:14.252Z,2.28
2023-05-09T20:38:16.765Z,2.00
2023-05-09T20:41:19.409Z,2.30
2023-05-09T20:44:21.736Z,2.15
2023-05-09T20:47:24.578Z,2.20
2023-05-09T20:50:27.074Z,1.90
2023-05-09T20:53:31.765Z,2.10
2023-05-09T20:56:35.631Z,3.25
2023-05-09T20:59:38.390Z,2.12
2023-05-09T21:02:40.950Z,1.90
2023-05-09T21:05:43.692Z,2.22
2023-05-09T21:08:46.001Z,1.87
2023-05-09T21:11:48.586Z,2.10
2023-05-09T21:14:51.152Z,2.53
2023-05-09T21:17:53.773Z,3.92
2023-05-09T21:20:56.124Z,2.90
2023-05-09T21:24:09.095Z,1.83
2023-05-09T21:27:11.521Z,2.00
2023-05-09T21:30:15.041Z,1.90
2023-05-09T21:33:17.506Z,1.90
2023-05-09T21:36:20.241Z,1.77
2023-05-09T21:39:22.567Z,1.67
2023-05-09T21:42:25.268Z,1.83
2023-05-09T21:45:27.869Z,2.00
2023-05-09T21:48:30.576Z,1.67
2023-05-09T21:51:34.900Z,2.10
2023-05-09T21:54:37.525Z,2.33
2023-05-09T21:57:39.803Z,2.25
2023-05-09T22:00:42.418Z,2.00
2023-05-09T22:03:45.783Z,2.05
2023-05-09T22:06:48.619Z,1.87
2023-05-09T22:09:51.763Z,2.00
2023-05-09T22:12:54.200Z,1.60
2023-05-09T22:15:56.854Z,1.92
2023-05-09T22:18:59.191Z,2.00
2023-05-09T22:22:01.766Z,2.17
2023-05-09T22:25:05.040Z,2.30
2023-05-09T22:28:07.700Z,2.20
2023-05-09T22:31:10.600Z,1.73
2023-05-09T22:34:13.240Z,2.17
2023-05-09T22:37:17.022Z,2.08
2023-05-09T22:40:21.098Z,1.75
2023-05-09T22:43:25.397Z,1.90
2023-05-09T22:46:31.462Z,1.42
2023-05-09T22:49:33.956Z,1.80
2023-05-09T22:52:36.612Z,1.80
2023-05-09T22:55:38.992Z,1.80
2023-05-09T22:58:41.717Z,2.00
2023-05-09T23:01:44.136Z,2.10
2023-05-09T23:04:47.010Z,2.15
2023-05-09T23:11:46.797Z,1.70
2023-05-09T23:14:49.484Z,1.75
2023-05-09T23:17:52.110Z,1.87
2023-05-09T23:20:54.476Z,2.03
2023-05-09T23:23:57.148Z,1.92
2023-05-09T23:26:59.539Z,5.68
2023-05-09T23:30:02.195Z,3.55
2023-05-09T23:33:04.567Z,2.78
2023-05-09T23:36:07.656Z,2.80
2023-05-09T23:39:10.052Z,2.92
2023-05-09T23:42:12.705Z,2.10
2023-05-09T23:45:15.111Z,2.17
2023-05-09T23:48:17.821Z,2.30
2023-05-09T23:51:21.616Z,2.30
2023-05-09T23:54:24.499Z,2.40
2023-05-09T23:57:29.231Z,2.20
